Blue Yonder — WCW3625 — position and weather

sailwx.info

Track history (hours):
 
Tides and Currents Weather Stations Pressure Air Temp Water Temp Dewpoint Dewpoint Depression Visibility Wind Speed Wind Dir Waves Ship Positions

Blue Yonder

Owner: BRIDGES, DAVID M, VIRGINIA BEACH, VA. More information available from US FCC via Universal Licensing System and Coast Guard Vessel Documentation Center.

Last reported at 2016-May-03 12:31 UTC. Time now 2016-Jun-26 08:17 UTC.
Position N 34°51' W 076°41'.
Warning: this ship's position is 53 days out of date.

Length 12 m.

Type: Sailing vessel. MMSI: 367091720.

Date/timePositionNaut miles runAvg speedWind from/ knotsBaromVisibWave heightAir tempDewpointWater temp
2016-May-03 12:31N 34°51' W 076°41'6 6.3
2016-May-03 11:33N 34°45' W 076°40'2 2.3
2016-May-03 10:32N 34°43' W 076°40'0 0.0
2016-May-03 09:32N 34°43' W 076°40'0 0.0
2016-May-03 08:32N 34°43' W 076°40'0 0.0
2016-May-03 07:32N 34°43' W 076°40'0 0.0
2016-May-03 06:32N 34°43' W 076°40'0 0.0
2016-May-03 05:32N 34°43' W 076°40'0 0.0
2016-May-03 04:32N 34°43' W 076°40'0 0.0
2016-May-03 03:32N 34°43' W 076°40'0 0.0
2016-May-03 02:32N 34°43' W 076°40'0 0.0
2016-May-03 01:32N 34°43' W 076°40'0 0.0
2016-May-03 00:32N 34°43' W 076°40'0 0.0
2016-May-02 23:32N 34°43' W 076°40'0 0.0
2016-May-02 22:32N 34°43' W 076°40'0 0.0
2016-May-02 21:32N 34°43' W 076°40'0 0.0
2016-May-02 20:32N 34°43' W 076°40'0 0.0
2016-May-02 19:32N 34°43' W 076°40'0 0.0
2016-May-02 18:32N 34°43' W 076°40'0 0.0
2016-May-02 17:32N 34°43' W 076°40'0 0.0
2016-May-02 16:32N 34°43' W 076°40'0 0.0
2016-May-02 15:32N 34°43' W 076°40'0 0.0
2016-May-02 14:32N 34°43' W 076°40'0 0.4
2016-May-02 13:33N 34°43' W 076°40'1 1.4
2016-May-02 12:32N 34°42' W 076°41'0 0.0
2016-May-02 11:32N 34°42' W 076°41'0 0.0
2016-May-02 10:32N 34°42' W 076°41'0 0.0
2016-May-02 09:32N 34°42' W 076°41'0 0.0
2016-May-02 08:32N 34°42' W 076°41'0 0.0
2016-May-02 07:32N 34°42' W 076°41'0 0.0
2016-May-02 06:32N 34°42' W 076°41'0 0.0
2016-May-02 05:32N 34°42' W 076°41'0 0.0
2016-May-02 04:32N 34°42' W 076°41'0 0.0
2016-May-02 03:32N 34°42' W 076°41'0 0.0
2016-May-02 02:32N 34°42' W 076°41'0 0.0
2016-May-02 01:32N 34°42' W 076°41'1 1.4
2016-May-02 00:33N 34°41' W 076°40'  
2016-Apr-25 16:20N 26°28' W 079°55'5 6.8
2016-Apr-25 15:33N 26°23' W 079°57'7 7.2
2016-Apr-25 14:33N 26°17' W 080°00'7 7.0
2016-Apr-25 13:32N 26°10' W 080°03'5 5.4
2016-Apr-25 12:31N 26°06' W 080°07'2 2.2
2016-Apr-25 11:33N 26°08' W 080°07'1 0.6
2016-Apr-25 10:30N 26°08' W 080°07'0 0.0
2016-Apr-25 09:30N 26°08' W 080°07'0 0.0
2016-Apr-25 08:33N 26°08' W 080°07'0 0.0
2016-Apr-25 07:33N 26°08' W 080°07'0 0.0
2016-Apr-25 06:33N 26°08' W 080°07'0 0.0
2016-Apr-25 05:33N 26°08' W 080°07'0 0.0
2016-Apr-25 04:33N 26°08' W 080°07'0 0.0
2016-Apr-25 03:31N 26°08' W 080°07'0 0.0
2016-Apr-24 03:33N 26°08' W 080°07'1 0.8
2016-Apr-24 02:33N 26°07' W 080°06'0 0.0
2016-Apr-24 01:30N 26°08' W 080°06'0 0.0
2016-Apr-24 00:33N 26°08' W 080°06'0 0.0
2016-Apr-23 23:21N 26°08' W 080°06'0 0.0
2016-Apr-23 22:33N 26°08' W 080°06'2 1.4
2016-Apr-23 21:28N 26°06' W 080°07'4 3.9
2016-Apr-23 20:33N 26°04' W 080°04'3 3.0
2016-Apr-23 19:26N 26°00' W 080°04'1 1.2
2016-Apr-23 18:33N 26°01' W 080°05'4 3.4
2016-Apr-23 17:30N 26°04' W 080°06'2 2.1
2016-Apr-23 16:29N 26°06' W 080°07'1 1.3
2016-Apr-23 15:33N 26°08' W 080°06'  
Track history (hours):
 
Tides and Currents Weather Stations Pressure Air Temp Water Temp Dewpoint Dewpoint Depression Visibility Wind Speed Wind Dir Waves Ship Positions

Blue Yonder

Owner: BRIDGES, DAVID M, VIRGINIA BEACH, VA. More information available from US FCC via Universal Licensing System and Coast Guard Vessel Documentation Center.

Last reported at 2016-May-03 12:31 UTC. Time now 2016-Jun-26 08:17 UTC.
Position N 34°51' W 076°41'.
Warning: this ship's position is 53 days out of date.

Length 12 m.

Type: Sailing vessel. MMSI: 367091720.

Date/timePositionNaut miles runAvg speedWind from/ knotsBaromVisibWave heightAir tempDewpointWater temp
2016-May-03 12:31N 34°51' W 076°41'6 6.3
2016-May-03 11:33N 34°45' W 076°40'2 2.3
2016-May-03 10:32N 34°43' W 076°40'0 0.0
2016-May-03 09:32N 34°43' W 076°40'0 0.0
2016-May-03 08:32N 34°43' W 076°40'0 0.0
2016-May-03 07:32N 34°43' W 076°40'0 0.0
2016-May-03 06:32N 34°43' W 076°40'0 0.0
2016-May-03 05:32N 34°43' W 076°40'0 0.0
2016-May-03 04:32N 34°43' W 076°40'0 0.0
2016-May-03 03:32N 34°43' W 076°40'0 0.0
2016-May-03 02:32N 34°43' W 076°40'0 0.0
2016-May-03 01:32N 34°43' W 076°40'0 0.0
2016-May-03 00:32N 34°43' W 076°40'0 0.0
2016-May-02 23:32N 34°43' W 076°40'0 0.0
2016-May-02 22:32N 34°43' W 076°40'0 0.0
2016-May-02 21:32N 34°43' W 076°40'0 0.0
2016-May-02 20:32N 34°43' W 076°40'0 0.0
2016-May-02 19:32N 34°43' W 076°40'0 0.0
2016-May-02 18:32N 34°43' W 076°40'0 0.0
2016-May-02 17:32N 34°43' W 076°40'0 0.0
2016-May-02 16:32N 34°43' W 076°40'0 0.0
2016-May-02 15:32N 34°43' W 076°40'0 0.0
2016-May-02 14:32N 34°43' W 076°40'0 0.4
2016-May-02 13:33N 34°43' W 076°40'1 1.4
2016-May-02 12:32N 34°42' W 076°41'0 0.0
2016-May-02 11:32N 34°42' W 076°41'0 0.0
2016-May-02 10:32N 34°42' W 076°41'0 0.0
2016-May-02 09:32N 34°42' W 076°41'0 0.0
2016-May-02 08:32N 34°42' W 076°41'0 0.0
2016-May-02 07:32N 34°42' W 076°41'0 0.0
2016-May-02 06:32N 34°42' W 076°41'0 0.0
2016-May-02 05:32N 34°42' W 076°41'0 0.0
2016-May-02 04:32N 34°42' W 076°41'0 0.0
2016-May-02 03:32N 34°42' W 076°41'0 0.0
2016-May-02 02:32N 34°42' W 076°41'0 0.0
2016-May-02 01:32N 34°42' W 076°41'1 1.4
2016-May-02 00:33N 34°41' W 076°40'  
2016-Apr-25 16:20N 26°28' W 079°55'5 6.8
2016-Apr-25 15:33N 26°23' W 079°57'7 7.2
2016-Apr-25 14:33N 26°17' W 080°00'7 7.0
2016-Apr-25 13:32N 26°10' W 080°03'5 5.4
2016-Apr-25 12:31N 26°06' W 080°07'2 2.2
2016-Apr-25 11:33N 26°08' W 080°07'1 0.6
2016-Apr-25 10:30N 26°08' W 080°07'0 0.0
2016-Apr-25 09:30N 26°08' W 080°07'0 0.0
2016-Apr-25 08:33N 26°08' W 080°07'0 0.0
2016-Apr-25 07:33N 26°08' W 080°07'0 0.0
2016-Apr-25 06:33N 26°08' W 080°07'0 0.0
2016-Apr-25 05:33N 26°08' W 080°07'0 0.0
2016-Apr-25 04:33N 26°08' W 080°07'0 0.0
2016-Apr-25 03:31N 26°08' W 080°07'0 0.0
2016-Apr-24 03:33N 26°08' W 080°07'1 0.8
2016-Apr-24 02:33N 26°07' W 080°06'0 0.0
2016-Apr-24 01:30N 26°08' W 080°06'0 0.0
2016-Apr-24 00:33N 26°08' W 080°06'0 0.0
2016-Apr-23 23:21N 26°08' W 080°06'0 0.0
2016-Apr-23 22:33N 26°08' W 080°06'2 1.4
2016-Apr-23 21:28N 26°06' W 080°07'4 3.9
2016-Apr-23 20:33N 26°04' W 080°04'3 3.0
2016-Apr-23 19:26N 26°00' W 080°04'1 1.2
2016-Apr-23 18:33N 26°01' W 080°05'4 3.4
2016-Apr-23 17:30N 26°04' W 080°06'2 2.1
2016-Apr-23 16:29N 26°06' W 080°07'1 1.3
2016-Apr-23 15:33N 26°08' W 080°06'  

Dump ship's entire track history